sensor_id;sensor_type;location;lat;lon;timestamp;P1;durP1;ratioP1;P2;durP2;ratioP2
17598;SDS011;8918;52.092;5.232;2023-04-03T00:01:06;1.70;;;1.37;;
17598;SDS011;8918;52.092;5.232;2023-04-03T00:03:33;3.17;;;1.70;;
17598;SDS011;8918;52.092;5.232;2023-04-03T00:05:59;3.57;;;1.60;;
17598;SDS011;8918;52.092;5.232;2023-04-03T00:08:25;3.97;;;1.40;;
17598;SDS011;8918;52.092;5.232;2023-04-03T00:10:51;3.60;;;1.70;;
17598;SDS011;8918;52.092;5.232;2023-04-03T00:13:16;2.23;;;1.50;;
17598;SDS011;8918;52.092;5.232;2023-04-03T00:15:42;3.40;;;1.50;;
17598;SDS011;8918;52.092;5.232;2023-04-03T00:18:08;2.83;;;1.43;;
17598;SDS011;8918;52.092;5.232;2023-04-03T00:20:34;2.20;;;1.60;;
17598;SDS011;8918;52.092;5.232;2023-04-03T00:23:00;3.93;;;1.70;;
17598;SDS011;8918;52.092;5.232;2023-04-03T00:25:26;3.10;;;1.37;;
17598;SDS011;8918;52.092;5.232;2023-04-03T00:27:52;4.67;;;1.57;;
17598;SDS011;8918;52.092;5.232;2023-04-03T00:30:18;2.17;;;1.50;;
17598;SDS011;8918;52.092;5.232;2023-04-03T00:32:47;1.70;;;1.40;;
17598;SDS011;8918;52.092;5.232;2023-04-03T00:35:16;3.13;;;1.60;;
17598;SDS011;8918;52.092;5.232;2023-04-03T00:37:44;3.73;;;1.90;;
17598;SDS011;8918;52.092;5.232;2023-04-03T00:40:10;2.60;;;1.40;;
17598;SDS011;8918;52.092;5.232;2023-04-03T00:42:38;4.20;;;1.60;;
17598;SDS011;8918;52.092;5.232;2023-04-03T00:47:38;2.83;;;1.60;;
17598;SDS011;8918;52.092;5.232;2023-04-03T00:50:05;2.93;;;1.20;;
17598;SDS011;8918;52.092;5.232;2023-04-03T00:52:32;2.07;;;1.40;;
17598;SDS011;8918;52.092;5.232;2023-04-03T00:55:00;3.83;;;1.93;;
17598;SDS011;8918;52.092;5.232;2023-04-03T00:57:29;3.63;;;1.70;;
17598;SDS011;8918;52.092;5.232;2023-04-03T00:59:57;4.00;;;1.80;;
17598;SDS011;8918;52.092;5.232;2023-04-03T01:02:26;3.70;;;1.40;;
17598;SDS011;8918;52.092;5.232;2023-04-03T01:04:52;2.23;;;1.60;;
17598;SDS011;8918;52.092;5.232;2023-04-03T01:07:19;3.00;;;1.77;;
17598;SDS011;8918;52.092;5.232;2023-04-03T01:09:53;4.47;;;1.63;;
17598;SDS011;8918;52.092;5.232;2023-04-03T01:12:24;2.70;;;1.60;;
17598;SDS011;8918;52.092;5.232;2023-04-03T01:15:02;2.20;;;1.53;;
17598;SDS011;8918;52.092;5.232;2023-04-03T01:25:36;2.53;;;1.60;;
17598;SDS011;8918;52.092;5.232;2023-04-03T01:28:02;2.20;;;1.70;;
17598;SDS011;8918;52.092;5.232;2023-04-03T01:30:36;3.27;;;1.63;;
17598;SDS011;8918;52.092;5.232;2023-04-03T01:33:15;2.83;;;1.50;;
17598;SDS011;8918;52.092;5.232;2023-04-03T01:35:41;1.63;;;1.50;;
17598;SDS011;8918;52.092;5.232;2023-04-03T01:38:06;4.63;;;1.73;;
17598;SDS011;8918;52.092;5.232;2023-04-03T01:40:32;5.60;;;1.80;;
17598;SDS011;8918;52.092;5.232;2023-04-03T01:42:57;3.40;;;1.87;;
17598;SDS011;8918;52.092;5.232;2023-04-03T01:45:23;3.07;;;1.70;;
17598;SDS011;8918;52.092;5.232;2023-04-03T01:47:48;2.93;;;1.70;;
17598;SDS011;8918;52.092;5.232;2023-04-03T01:50:15;2.97;;;1.70;;
17598;SDS011;8918;52.092;5.232;2023-04-03T01:52:40;2.67;;;1.63;;
17598;SDS011;8918;52.092;5.232;2023-04-03T01:55:06;3.30;;;1.63;;
17598;SDS011;8918;52.092;5.232;2023-04-03T01:57:32;3.00;;;1.73;;
17598;SDS011;8918;52.092;5.232;2023-04-03T01:59:57;2.87;;;1.80;;
17598;SDS011;8918;52.092;5.232;2023-04-03T02:02:23;2.13;;;1.50;;
17598;SDS011;8918;52.092;5.232;2023-04-03T02:04:48;3.60;;;1.83;;
17598;SDS011;8918;52.092;5.232;2023-04-03T02:07:14;2.97;;;1.93;;
17598;SDS011;8918;52.092;5.232;2023-04-03T02:09:40;2.90;;;1.80;;
17598;SDS011;8918;52.092;5.232;2023-04-03T02:12:05;3.20;;;1.80;;
17598;SDS011;8918;52.092;5.232;2023-04-03T02:14:31;4.77;;;1.73;;
17598;SDS011;8918;52.092;5.232;2023-04-03T02:16:56;3.23;;;1.80;;
17598;SDS011;8918;52.092;5.232;2023-04-03T02:19:22;4.67;;;1.83;;
17598;SDS011;8918;52.092;5.232;2023-04-03T02:21:48;3.43;;;1.90;;
17598;SDS011;8918;52.092;5.232;2023-04-03T02:24:14;2.00;;;1.80;;
17598;SDS011;8918;52.092;5.232;2023-04-03T02:26:39;4.90;;;1.70;;
17598;SDS011;8918;52.092;5.232;2023-04-03T02:29:05;3.57;;;1.80;;
17598;SDS011;8918;52.092;5.232;2023-04-03T02:31:30;4.03;;;2.00;;
17598;SDS011;8918;52.092;5.232;2023-04-03T02:33:56;4.07;;;2.10;;
17598;SDS011;8918;52.092;5.232;2023-04-03T02:36:22;3.90;;;1.83;;
17598;SDS011;8918;52.092;5.232;2023-04-03T02:38:47;3.20;;;1.90;;
17598;SDS011;8918;52.092;5.232;2023-04-03T02:41:13;2.63;;;1.70;;
17598;SDS011;8918;52.092;5.232;2023-04-03T02:43:39;4.73;;;1.73;;
17598;SDS011;8918;52.092;5.232;2023-04-03T02:46:05;3.00;;;1.87;;
17598;SDS011;8918;52.092;5.232;2023-04-03T02:48:31;6.50;;;1.87;;
17598;SDS011;8918;52.092;5.232;2023-04-03T02:50:57;4.97;;;1.80;;
17598;SDS011;8918;52.092;5.232;2023-04-03T02:53:23;6.23;;;2.03;;
17598;SDS011;8918;52.092;5.232;2023-04-03T02:55:49;5.10;;;2.13;;
17598;SDS011;8918;52.092;5.232;2023-04-03T02:58:15;6.23;;;2.10;;
17598;SDS011;8918;52.092;5.232;2023-04-03T03:00:40;3.37;;;2.10;;
17598;SDS011;8918;52.092;5.232;2023-04-03T03:03:06;3.67;;;1.93;;
17598;SDS011;8918;52.092;5.232;2023-04-03T03:05:32;3.33;;;2.07;;
17598;SDS011;8918;52.092;5.232;2023-04-03T03:07:58;5.13;;;1.90;;
17598;SDS011;8918;52.092;5.232;2023-04-03T03:10:24;4.33;;;1.97;;
17598;SDS011;8918;52.092;5.232;2023-04-03T03:12:50;2.33;;;2.00;;
17598;SDS011;8918;52.092;5.232;2023-04-03T03:15:16;4.03;;;1.90;;
17598;SDS011;8918;52.092;5.232;2023-04-03T03:17:42;3.53;;;1.90;;
17598;SDS011;8918;52.092;5.232;2023-04-03T03:20:08;3.37;;;2.00;;
17598;SDS011;8918;52.092;5.232;2023-04-03T03:22:34;3.17;;;2.00;;
17598;SDS011;8918;52.092;5.232;2023-04-03T03:25:00;6.93;;;2.40;;
17598;SDS011;8918;52.092;5.232;2023-04-03T03:27:27;3.03;;;1.93;;
17598;SDS011;8918;52.092;5.232;2023-04-03T03:29:53;3.80;;;1.90;;
17598;SDS011;8918;52.092;5.232;2023-04-03T03:32:18;4.17;;;2.10;;
17598;SDS011;8918;52.092;5.232;2023-04-03T03:34:44;2.30;;;1.90;;
17598;SDS011;8918;52.092;5.232;2023-04-03T03:37:10;3.63;;;2.20;;
17598;SDS011;8918;52.092;5.232;2023-04-03T03:39:35;6.37;;;2.00;;
17598;SDS011;8918;52.092;5.232;2023-04-03T03:42:01;5.10;;;2.10;;
17598;SDS011;8918;52.092;5.232;2023-04-03T03:44:26;2.57;;;2.10;;
17598;SDS011;8918;52.092;5.232;2023-04-03T03:46:54;4.97;;;2.23;;
17598;SDS011;8918;52.092;5.232;2023-04-03T03:49:19;3.57;;;2.33;;
17598;SDS011;8918;52.092;5.232;2023-04-03T03:51:45;4.33;;;2.07;;
17598;SDS011;8918;52.092;5.232;2023-04-03T03:54:10;3.43;;;2.13;;
17598;SDS011;8918;52.092;5.232;2023-04-03T03:56:36;6.93;;;2.23;;
17598;SDS011;8918;52.092;5.232;2023-04-03T03:59:02;3.77;;;2.20;;
17598;SDS011;8918;52.092;5.232;2023-04-03T04:01:27;5.40;;;2.30;;
17598;SDS011;8918;52.092;5.232;2023-04-03T04:03:53;4.03;;;2.17;;
17598;SDS011;8918;52.092;5.232;2023-04-03T04:06:20;4.07;;;2.30;;
17598;SDS011;8918;52.092;5.232;2023-04-03T04:08:46;4.27;;;2.27;;
17598;SDS011;8918;52.092;5.232;2023-04-03T04:11:12;3.40;;;2.03;;
17598;SDS011;8918;52.092;5.232;2023-04-03T04:13:37;4.97;;;2.30;;
17598;SDS011;8918;52.092;5.232;2023-04-03T04:16:03;4.67;;;2.40;;
17598;SDS011;8918;52.092;5.232;2023-04-03T04:18:29;3.37;;;2.13;;
17598;SDS011;8918;52.092;5.232;2023-04-03T04:20:55;3.90;;;2.30;;
17598;SDS011;8918;52.092;5.232;2023-04-03T04:23:20;4.80;;;2.73;;
17598;SDS011;8918;52.092;5.232;2023-04-03T04:25:46;4.67;;;2.07;;
17598;SDS011;8918;52.092;5.232;2023-04-03T04:28:13;5.87;;;2.30;;
17598;SDS011;8918;52.092;5.232;2023-04-03T04:30:38;5.87;;;2.40;;
17598;SDS011;8918;52.092;5.232;2023-04-03T04:33:04;4.43;;;2.63;;
17598;SDS011;8918;52.092;5.232;2023-04-03T04:35:30;5.20;;;2.50;;
17598;SDS011;8918;52.092;5.232;2023-04-03T04:37:56;4.17;;;2.00;;
17598;SDS011;8918;52.092;5.232;2023-04-03T04:40:21;5.07;;;2.30;;
17598;SDS011;8918;52.092;5.232;2023-04-03T04:42:47;4.43;;;2.47;;
17598;SDS011;8918;52.092;5.232;2023-04-03T04:45:13;6.53;;;2.47;;
17598;SDS011;8918;52.092;5.232;2023-04-03T04:47:39;4.70;;;2.27;;
17598;SDS011;8918;52.092;5.232;2023-04-03T04:50:06;3.50;;;2.17;;
17598;SDS011;8918;52.092;5.232;2023-04-03T04:52:32;7.80;;;2.60;;
17598;SDS011;8918;52.092;5.232;2023-04-03T04:54:58;6.20;;;2.30;;
17598;SDS011;8918;52.092;5.232;2023-04-03T04:57:23;3.60;;;2.47;;
17598;SDS011;8918;52.092;5.232;2023-04-03T04:59:49;6.23;;;2.53;;
17598;SDS011;8918;52.092;5.232;2023-04-03T05:02:15;4.03;;;2.30;;
17598;SDS011;8918;52.092;5.232;2023-04-03T05:04:40;6.37;;;2.60;;
17598;SDS011;8918;52.092;5.232;2023-04-03T05:07:06;6.73;;;2.47;;
17598;SDS011;8918;52.092;5.232;2023-04-03T05:09:32;4.07;;;2.43;;
17598;SDS011;8918;52.092;5.232;2023-04-03T05:11:57;5.17;;;2.50;;
17598;SDS011;8918;52.092;5.232;2023-04-03T05:14:23;7.10;;;2.60;;
17598;SDS011;8918;52.092;5.232;2023-04-03T05:16:48;5.33;;;2.53;;
17598;SDS011;8918;52.092;5.232;2023-04-03T05:19:18;4.77;;;2.70;;
17598;SDS011;8918;52.092;5.232;2023-04-03T05:21:44;5.13;;;2.50;;
17598;SDS011;8918;52.092;5.232;2023-04-03T05:24:10;4.37;;;2.40;;
17598;SDS011;8918;52.092;5.232;2023-04-03T05:26:35;6.60;;;2.80;;
17598;SDS011;8918;52.092;5.232;2023-04-03T05:29:01;3.80;;;2.40;;
17598;SDS011;8918;52.092;5.232;2023-04-03T05:31:27;5.80;;;2.50;;
17598;SDS011;8918;52.092;5.232;2023-04-03T05:33:54;6.03;;;2.93;;
17598;SDS011;8918;52.092;5.232;2023-04-03T05:36:20;7.97;;;2.90;;
17598;SDS011;8918;52.092;5.232;2023-04-03T05:38:46;5.60;;;2.80;;
17598;SDS011;8918;52.092;5.232;2023-04-03T05:41:12;4.63;;;2.50;;
17598;SDS011;8918;52.092;5.232;2023-04-03T05:43:38;5.20;;;2.80;;
17598;SDS011;8918;52.092;5.232;2023-04-03T05:46:09;5.83;;;2.63;;
17598;SDS011;8918;52.092;5.232;2023-04-03T05:48:39;5.83;;;2.60;;
17598;SDS011;8918;52.092;5.232;2023-04-03T05:51:05;7.43;;;2.73;;
17598;SDS011;8918;52.092;5.232;2023-04-03T05:53:33;5.57;;;2.80;;
17598;SDS011;8918;52.092;5.232;2023-04-03T05:56:02;3.87;;;2.70;;
17598;SDS011;8918;52.092;5.232;2023-04-03T05:58:28;6.47;;;2.80;;
17598;SDS011;8918;52.092;5.232;2023-04-03T06:00:54;7.23;;;2.50;;
17598;SDS011;8918;52.092;5.232;2023-04-03T06:03:20;7.10;;;2.80;;
17598;SDS011;8918;52.092;5.232;2023-04-03T06:05:45;3.67;;;2.23;;
17598;SDS011;8918;52.092;5.232;2023-04-03T06:08:11;6.17;;;2.57;;
17598;SDS011;8918;52.092;5.232;2023-04-03T06:10:37;7.33;;;2.77;;
17598;SDS011;8918;52.092;5.232;2023-04-03T06:13:03;6.07;;;2.47;;
17598;SDS011;8918;52.092;5.232;2023-04-03T06:15:29;5.53;;;2.50;;
17598;SDS011;8918;52.092;5.232;2023-04-03T06:17:54;4.70;;;2.50;;
17598;SDS011;8918;52.092;5.232;2023-04-03T06:20:21;4.87;;;2.57;;
17598;SDS011;8918;52.092;5.232;2023-04-03T06:22:47;5.57;;;2.90;;
17598;SDS011;8918;52.092;5.232;2023-04-03T06:25:13;4.20;;;2.20;;
17598;SDS011;8918;52.092;5.232;2023-04-03T06:27:39;4.40;;;2.27;;
17598;SDS011;8918;52.092;5.232;2023-04-03T06:30:05;6.83;;;3.20;;
17598;SDS011;8918;52.092;5.232;2023-04-03T06:32:32;6.00;;;2.43;;
17598;SDS011;8918;52.092;5.232;2023-04-03T06:34:58;7.13;;;2.40;;
17598;SDS011;8918;52.092;5.232;2023-04-03T06:37:23;5.87;;;2.37;;
17598;SDS011;8918;52.092;5.232;2023-04-03T06:39:53;3.50;;;2.20;;
17598;SDS011;8918;52.092;5.232;2023-04-03T06:42:19;5.83;;;2.43;;
17598;SDS011;8918;52.092;5.232;2023-04-03T06:44:45;5.13;;;2.23;;
17598;SDS011;8918;52.092;5.232;2023-04-03T06:47:15;3.43;;;2.27;;
17598;SDS011;8918;52.092;5.232;2023-04-03T06:49:41;5.20;;;2.20;;
17598;SDS011;8918;52.092;5.232;2023-04-03T06:52:07;5.50;;;2.50;;
17598;SDS011;8918;52.092;5.232;2023-04-03T06:54:33;5.73;;;2.10;;
17598;SDS011;8918;52.092;5.232;2023-04-03T06:56:59;4.77;;;2.30;;
17598;SDS011;8918;52.092;5.232;2023-04-03T06:59:25;5.43;;;1.90;;
17598;SDS011;8918;52.092;5.232;2023-04-03T07:01:51;4.47;;;2.20;;
17598;SDS011;8918;52.092;5.232;2023-04-03T07:04:16;4.80;;;2.23;;
17598;SDS011;8918;52.092;5.232;2023-04-03T07:06:43;4.73;;;2.20;;
17598;SDS011;8918;52.092;5.232;2023-04-03T07:09:09;3.93;;;1.87;;
17598;SDS011;8918;52.092;5.232;2023-04-03T07:11:35;7.47;;;2.20;;
17598;SDS011;8918;52.092;5.232;2023-04-03T07:14:01;3.87;;;2.00;;
17598;SDS011;8918;52.092;5.232;2023-04-03T07:16:27;3.63;;;1.83;;
17598;SDS011;8918;52.092;5.232;2023-04-03T07:18:55;4.60;;;1.90;;
17598;SDS011;8918;52.092;5.232;2023-04-03T07:21:22;5.23;;;2.03;;
17598;SDS011;8918;52.092;5.232;2023-04-03T07:23:47;5.67;;;2.40;;
17598;SDS011;8918;52.092;5.232;2023-04-03T07:26:13;5.30;;;2.30;;
17598;SDS011;8918;52.092;5.232;2023-04-03T07:28:39;5.03;;;2.27;;
17598;SDS011;8918;52.092;5.232;2023-04-03T07:31:07;4.00;;;2.00;;
17598;SDS011;8918;52.092;5.232;2023-04-03T07:33:36;5.33;;;1.97;;
17598;SDS011;8918;52.092;5.232;2023-04-03T07:36:02;5.30;;;2.27;;
17598;SDS011;8918;52.092;5.232;2023-04-03T07:38:29;4.43;;;2.17;;
17598;SDS011;8918;52.092;5.232;2023-04-03T07:40:55;6.43;;;2.53;;
17598;SDS011;8918;52.092;5.232;2023-04-03T07:43:21;6.17;;;2.23;;
17598;SDS011;8918;52.092;5.232;2023-04-03T07:45:49;5.07;;;2.03;;
17598;SDS011;8918;52.092;5.232;2023-04-03T07:48:16;3.17;;;1.70;;
17598;SDS011;8918;52.092;5.232;2023-04-03T07:50:43;5.63;;;2.00;;
17598;SDS011;8918;52.092;5.232;2023-04-03T07:53:08;5.83;;;2.07;;
17598;SDS011;8918;52.092;5.232;2023-04-03T07:55:35;4.50;;;1.93;;
17598;SDS011;8918;52.092;5.232;2023-04-03T07:58:07;4.67;;;2.00;;
17598;SDS011;8918;52.092;5.232;2023-04-03T08:00:37;5.03;;;1.77;;
17598;SDS011;8918;52.092;5.232;2023-04-03T08:03:03;4.63;;;1.80;;
17598;SDS011;8918;52.092;5.232;2023-04-03T08:05:29;3.63;;;1.70;;
17598;SDS011;8918;52.092;5.232;2023-04-03T08:07:55;4.23;;;1.87;;
17598;SDS011;8918;52.092;5.232;2023-04-03T08:10:21;4.77;;;1.93;;
17598;SDS011;8918;52.092;5.232;2023-04-03T08:12:47;3.93;;;1.80;;
17598;SDS011;8918;52.092;5.232;2023-04-03T08:15:13;3.83;;;1.60;;
17598;SDS011;8918;52.092;5.232;2023-04-03T08:17:38;6.10;;;1.50;;
17598;SDS011;8918;52.092;5.232;2023-04-03T08:20:05;3.87;;;1.83;;
17598;SDS011;8918;52.092;5.232;2023-04-03T08:22:32;4.97;;;1.93;;
17598;SDS011;8918;52.092;5.232;2023-04-03T08:24:58;4.07;;;1.87;;
17598;SDS011;8918;52.092;5.232;2023-04-03T08:27:24;4.83;;;1.83;;
17598;SDS011;8918;52.092;5.232;2023-04-03T08:29:51;2.93;;;1.40;;
17598;SDS011;8918;52.092;5.232;2023-04-03T08:32:17;2.67;;;1.40;;
17598;SDS011;8918;52.092;5.232;2023-04-03T08:34:43;3.77;;;1.67;;
17598;SDS011;8918;52.092;5.232;2023-04-03T08:37:09;3.87;;;2.00;;
17598;SDS011;8918;52.092;5.232;2023-04-03T08:39:35;4.23;;;1.70;;
17598;SDS011;8918;52.092;5.232;2023-04-03T08:42:02;5.30;;;1.73;;
17598;SDS011;8918;52.092;5.232;2023-04-03T08:44:45;7.60;;;1.97;;
17598;SDS011;8918;52.092;5.232;2023-04-03T08:47:20;4.20;;;2.33;;
17598;SDS011;8918;52.092;5.232;2023-04-03T08:49:57;4.17;;;2.10;;
17598;SDS011;8918;52.092;5.232;2023-04-03T08:55:20;2.50;;;1.30;;
17598;SDS011;8918;52.092;5.232;2023-04-03T08:57:47;5.80;;;2.00;;
17598;SDS011;8918;52.092;5.232;2023-04-03T09:00:20;2.73;;;1.30;;
17598;SDS011;8918;52.092;5.232;2023-04-03T09:02:49;2.63;;;1.30;;
17598;SDS011;8918;52.092;5.232;2023-04-03T09:05:20;2.13;;;1.10;;
17598;SDS011;8918;52.092;5.232;2023-04-03T09:08:06;2.40;;;0.93;;
17598;SDS011;8918;52.092;5.232;2023-04-03T09:10:47;1.57;;;1.00;;
17598;SDS011;8918;52.092;5.232;2023-04-03T09:16:57;1.57;;;0.90;;
17598;SDS011;8918;52.092;5.232;2023-04-03T09:19:20;2.27;;;1.00;;
17598;SDS011;8918;52.092;5.232;2023-04-03T09:21:50;3.77;;;0.90;;
17598;SDS011;8918;52.092;5.232;2023-04-03T09:24:16;1.93;;;0.80;;
17598;SDS011;8918;52.092;5.232;2023-04-03T09:26:47;3.40;;;1.00;;
17598;SDS011;8918;52.092;5.232;2023-04-03T09:29:19;1.53;;;0.80;;
17598;SDS011;8918;52.092;5.232;2023-04-03T09:31:47;2.30;;;0.90;;
17598;SDS011;8918;52.092;5.232;2023-04-03T09:36:47;1.37;;;0.80;;
17598;SDS011;8918;52.092;5.232;2023-04-03T09:39:24;2.13;;;1.10;;
17598;SDS011;8918;52.092;5.232;2023-04-03T09:41:58;3.73;;;1.63;;
17598;SDS011;8918;52.092;5.232;2023-04-03T09:44:36;2.20;;;0.80;;
17598;SDS011;8918;52.092;5.232;2023-04-03T09:52:41;1.87;;;0.90;;
17598;SDS011;8918;52.092;5.232;2023-04-03T09:55:15;2.23;;;0.83;;
17598;SDS011;8918;52.092;5.232;2023-04-03T09:57:43;1.97;;;0.87;;
17598;SDS011;8918;52.092;5.232;2023-04-03T10:00:21;0.83;;;0.70;;
17598;SDS011;8918;52.092;5.232;2023-04-03T10:02:55;1.37;;;0.70;;
17598;SDS011;8918;52.092;5.232;2023-04-03T10:05:41;1.20;;;0.80;;
17598;SDS011;8918;52.092;5.232;2023-04-03T10:10:38;1.63;;;0.77;;
17598;SDS011;8918;52.092;5.232;2023-04-03T10:16:25;1.57;;;0.90;;
17598;SDS011;8918;52.092;5.232;2023-04-03T10:18:31;1.70;;;0.73;;
17598;SDS011;8918;52.092;5.232;2023-04-03T10:21:09;1.27;;;0.90;;
17598;SDS011;8918;52.092;5.232;2023-04-03T10:23:44;1.60;;;0.90;;
17598;SDS011;8918;52.092;5.232;2023-04-03T10:32:13;2.70;;;0.70;;
17598;SDS011;8918;52.092;5.232;2023-04-03T10:34:47;1.97;;;0.67;;
17598;SDS011;8918;52.092;5.232;2023-04-03T10:39:52;1.33;;;0.80;;
17598;SDS011;8918;52.092;5.232;2023-04-03T10:42:28;1.70;;;0.60;;
17598;SDS011;8918;52.092;5.232;2023-04-03T10:45:15;0.87;;;0.70;;
17598;SDS011;8918;52.092;5.232;2023-04-03T10:50:26;1.00;;;0.63;;
17598;SDS011;8918;52.092;5.232;2023-04-03T10:58:45;4.77;;;1.33;;
17598;SDS011;8918;52.092;5.232;2023-04-03T11:01:16;1.50;;;0.80;;
17598;SDS011;8918;52.092;5.232;2023-04-03T11:03:50;0.80;;;0.63;;
17598;SDS011;8918;52.092;5.232;2023-04-03T11:06:21;0.87;;;0.60;;
17598;SDS011;8918;52.092;5.232;2023-04-03T11:08:50;0.80;;;0.50;;
17598;SDS011;8918;52.092;5.232;2023-04-03T11:11:25;1.50;;;0.70;;
17598;SDS011;8918;52.092;5.232;2023-04-03T11:13:56;1.00;;;0.70;;
17598;SDS011;8918;52.092;5.232;2023-04-03T11:16:43;1.33;;;0.90;;
17598;SDS011;8918;52.092;5.232;2023-04-03T11:19:20;2.53;;;1.00;;
17598;SDS011;8918;52.092;5.232;2023-04-03T11:22:00;1.48;;;0.70;;
17598;SDS011;8918;52.092;5.232;2023-04-03T11:24:33;1.50;;;0.90;;
17598;SDS011;8918;52.092;5.232;2023-04-03T11:27:03;1.83;;;1.00;;
17598;SDS011;8918;52.092;5.232;2023-04-03T11:29:34;1.67;;;0.90;;
17598;SDS011;8918;52.092;5.232;2023-04-03T11:32:09;1.40;;;0.90;;
17598;SDS011;8918;52.092;5.232;2023-04-03T11:34:56;1.35;;;0.73;;
17598;SDS011;8918;52.092;5.232;2023-04-03T11:37:34;2.20;;;1.10;;
17598;SDS011;8918;52.092;5.232;2023-04-03T11:42:40;4.32;;;1.10;;
17598;SDS011;8918;52.092;5.232;2023-04-03T11:47:58;1.75;;;1.10;;
17598;SDS011;8918;52.092;5.232;2023-04-03T11:50:45;1.52;;;0.82;;
17598;SDS011;8918;52.092;5.232;2023-04-03T11:55:44;2.45;;;0.88;;
17598;SDS011;8918;52.092;5.232;2023-04-03T11:58:17;1.77;;;0.90;;
17598;SDS011;8918;52.092;5.232;2023-04-03T12:16:25;1.30;;;0.90;;
17598;SDS011;8918;52.092;5.232;2023-04-03T12:19:03;1.95;;;1.00;;
17598;SDS011;8918;52.092;5.232;2023-04-03T12:24:25;1.98;;;1.00;;
17598;SDS011;8918;52.092;5.232;2023-04-03T12:35:02;3.58;;;1.02;;
17598;SDS011;8918;52.092;5.232;2023-04-03T12:37:57;2.53;;;1.10;;
17598;SDS011;8918;52.092;5.232;2023-04-03T12:46:18;3.17;;;1.20;;
17598;SDS011;8918;52.092;5.232;2023-04-03T12:51:43;1.52;;;1.10;;
17598;SDS011;8918;52.092;5.232;2023-04-03T12:59:40;1.45;;;0.90;;
17598;SDS011;8918;52.092;5.232;2023-04-03T13:02:43;1.40;;;0.90;;
17598;SDS011;8918;52.092;5.232;2023-04-03T13:05:07;1.38;;;1.00;;
17598;SDS011;8918;52.092;5.232;2023-04-03T13:07:35;1.65;;;0.90;;
17598;SDS011;8918;52.092;5.232;2023-04-03T13:12:32;1.60;;;0.98;;
17598;SDS011;8918;52.092;5.232;2023-04-03T13:15:12;2.05;;;1.10;;
17598;SDS011;8918;52.092;5.232;2023-04-03T13:17:55;1.95;;;0.90;;
17598;SDS011;8918;52.092;5.232;2023-04-03T13:20:23;1.60;;;1.00;;
17598;SDS011;8918;52.092;5.232;2023-04-03T13:22:55;2.40;;;1.30;;
17598;SDS011;8918;52.092;5.232;2023-04-03T13:25:26;1.60;;;1.13;;
17598;SDS011;8918;52.092;5.232;2023-04-03T13:27:54;1.73;;;1.23;;
17598;SDS011;8918;52.092;5.232;2023-04-03T13:30:23;3.20;;;1.40;;
17598;SDS011;8918;52.092;5.232;2023-04-03T13:32:58;2.53;;;1.13;;
17598;SDS011;8918;52.092;5.232;2023-04-03T13:35:31;1.88;;;1.30;;
17598;SDS011;8918;52.092;5.232;2023-04-03T13:38:07;3.85;;;1.30;;
17598;SDS011;8918;52.092;5.232;2023-04-03T13:43:51;1.50;;;1.10;;
17598;SDS011;8918;52.092;5.232;2023-04-03T13:48:46;3.10;;;1.30;;
17598;SDS011;8918;52.092;5.232;2023-04-03T13:53:46;1.60;;;1.13;;
17598;SDS011;8918;52.092;5.232;2023-04-03T13:56:26;2.80;;;1.10;;
17598;SDS011;8918;52.092;5.232;2023-04-03T14:06:45;1.30;;;1.05;;
17598;SDS011;8918;52.092;5.232;2023-04-03T14:09:12;2.35;;;1.25;;
17598;SDS011;8918;52.092;5.232;2023-04-03T14:11:39;2.08;;;1.35;;
17598;SDS011;8918;52.092;5.232;2023-04-03T14:14:10;2.60;;;1.25;;
17598;SDS011;8918;52.092;5.232;2023-04-03T14:16:40;1.98;;;1.17;;
17598;SDS011;8918;52.092;5.232;2023-04-03T14:19:09;2.05;;;1.35;;
17598;SDS011;8918;52.092;5.232;2023-04-03T14:21:42;4.20;;;1.35;;
17598;SDS011;8918;52.092;5.232;2023-04-03T14:24:08;2.85;;;1.30;;
17598;SDS011;8918;52.092;5.232;2023-04-03T14:26:33;2.22;;;1.30;;
17598;SDS011;8918;52.092;5.232;2023-04-03T14:28:59;2.38;;;1.30;;
17598;SDS011;8918;52.092;5.232;2023-04-03T14:31:24;1.85;;;1.30;;
17598;SDS011;8918;52.092;5.232;2023-04-03T14:33:50;2.40;;;1.30;;
17598;SDS011;8918;52.092;5.232;2023-04-03T14:36:23;2.85;;;1.27;;
17598;SDS011;8918;52.092;5.232;2023-04-03T14:38:51;2.17;;;1.27;;
17598;SDS011;8918;52.092;5.232;2023-04-03T14:41:18;2.70;;;1.58;;
17598;SDS011;8918;52.092;5.232;2023-04-03T14:43:46;2.55;;;1.35;;
17598;SDS011;8918;52.092;5.232;2023-04-03T14:46:13;1.85;;;1.30;;
17598;SDS011;8918;52.092;5.232;2023-04-03T14:48:42;3.92;;;1.42;;
17598;SDS011;8918;52.092;5.232;2023-04-03T14:51:12;2.63;;;1.35;;
17598;SDS011;8918;52.092;5.232;2023-04-03T14:53:38;1.80;;;1.30;;
17598;SDS011;8918;52.092;5.232;2023-04-03T14:56:27;2.85;;;1.50;;
17598;SDS011;8918;52.092;5.232;2023-04-03T14:58:59;2.30;;;1.30;;
17598;SDS011;8918;52.092;5.232;2023-04-03T15:01:26;2.50;;;1.33;;
17598;SDS011;8918;52.092;5.232;2023-04-03T15:03:52;2.70;;;1.35;;
17598;SDS011;8918;52.092;5.232;2023-04-03T15:06:18;2.95;;;1.50;;
17598;SDS011;8918;52.092;5.232;2023-04-03T15:08:45;4.55;;;1.33;;
17598;SDS011;8918;52.092;5.232;2023-04-03T15:11:12;2.55;;;1.30;;
17598;SDS011;8918;52.092;5.232;2023-04-03T15:13:38;2.97;;;1.60;;
17598;SDS011;8918;52.092;5.232;2023-04-03T15:16:04;3.40;;;1.50;;
17598;SDS011;8918;52.092;5.232;2023-04-03T15:18:37;4.03;;;1.70;;
17598;SDS011;8918;52.092;5.232;2023-04-03T15:21:03;2.78;;;1.55;;
17598;SDS011;8918;52.092;5.232;2023-04-03T15:23:29;4.47;;;1.75;;
17598;SDS011;8918;52.092;5.232;2023-04-03T15:25:55;3.83;;;1.58;;
17598;SDS011;8918;52.092;5.232;2023-04-03T15:28:22;3.20;;;1.70;;
17598;SDS011;8918;52.092;5.232;2023-04-03T15:30:58;2.97;;;1.67;;
17598;SDS011;8918;52.092;5.232;2023-04-03T15:33:24;2.22;;;1.70;;
17598;SDS011;8918;52.092;5.232;2023-04-03T15:35:50;3.08;;;1.60;;
17598;SDS011;8918;52.092;5.232;2023-04-03T15:38:16;3.30;;;1.73;;
17598;SDS011;8918;52.092;5.232;2023-04-03T15:40:42;2.72;;;1.50;;
17598;SDS011;8918;52.092;5.232;2023-04-03T15:43:08;2.15;;;1.63;;
17598;SDS011;8918;52.092;5.232;2023-04-03T15:45:35;3.72;;;1.70;;
17598;SDS011;8918;52.092;5.232;2023-04-03T15:48:02;3.15;;;1.75;;
17598;SDS011;8918;52.092;5.232;2023-04-03T15:50:29;3.63;;;1.90;;
17598;SDS011;8918;52.092;5.232;2023-04-03T15:52:56;4.63;;;1.90;;
17598;SDS011;8918;52.092;5.232;2023-04-03T15:55:26;3.17;;;1.60;;
17598;SDS011;8918;52.092;5.232;2023-04-03T15:57:53;2.55;;;1.80;;
17598;SDS011;8918;52.092;5.232;2023-04-03T16:00:19;4.10;;;1.70;;
17598;SDS011;8918;52.092;5.232;2023-04-03T16:02:46;3.88;;;1.77;;
17598;SDS011;8918;52.092;5.232;2023-04-03T16:05:13;3.30;;;1.77;;
17598;SDS011;8918;52.092;5.232;2023-04-03T16:07:42;2.13;;;1.60;;
17598;SDS011;8918;52.092;5.232;2023-04-03T16:10:09;3.13;;;1.50;;
17598;SDS011;8918;52.092;5.232;2023-04-03T16:12:35;3.83;;;2.65;;
17598;SDS011;8918;52.092;5.232;2023-04-03T16:15:01;6.10;;;3.50;;
17598;SDS011;8918;52.092;5.232;2023-04-03T16:17:28;3.03;;;2.20;;
17598;SDS011;8918;52.092;5.232;2023-04-03T16:19:55;2.55;;;1.73;;
17598;SDS011;8918;52.092;5.232;2023-04-03T16:22:21;3.70;;;1.80;;
17598;SDS011;8918;52.092;5.232;2023-04-03T16:24:48;4.68;;;1.95;;
17598;SDS011;8918;52.092;5.232;2023-04-03T16:27:14;4.55;;;1.80;;
17598;SDS011;8918;52.092;5.232;2023-04-03T16:29:40;4.03;;;2.00;;
17598;SDS011;8918;52.092;5.232;2023-04-03T16:32:05;4.03;;;1.70;;
17598;SDS011;8918;52.092;5.232;2023-04-03T16:34:31;4.15;;;3.33;;
17598;SDS011;8918;52.092;5.232;2023-04-03T16:36:57;5.18;;;3.95;;
17598;SDS011;8918;52.092;5.232;2023-04-03T16:39:23;7.55;;;5.78;;
17598;SDS011;8918;52.092;5.232;2023-04-03T16:41:49;4.57;;;4.03;;
17598;SDS011;8918;52.092;5.232;2023-04-03T16:44:15;10.23;;;9.23;;
17598;SDS011;8918;52.092;5.232;2023-04-03T16:46:40;11.70;;;10.50;;
17598;SDS011;8918;52.092;5.232;2023-04-03T16:49:06;6.72;;;5.57;;
17598;SDS011;8918;52.092;5.232;2023-04-03T16:51:32;9.02;;;7.82;;
17598;SDS011;8918;52.092;5.232;2023-04-03T16:53:57;6.03;;;5.43;;
17598;SDS011;8918;52.092;5.232;2023-04-03T16:56:23;6.10;;;5.15;;
17598;SDS011;8918;52.092;5.232;2023-04-03T16:58:51;3.85;;;3.55;;
17598;SDS011;8918;52.092;5.232;2023-04-03T17:01:19;4.63;;;4.22;;